Time;durP1;ratioP1;P1;durP2;ratioP2;P2;SDS_P1;SDS_P2;PMS_P1;PMS_P2;Temp;Humidity;BMP_temperature;BMP_pressure;BME280_temperature;BME280_humidity;BME280_pressure;Samples;Min_cycle;Max_cycle;Signal;HPM_P1;HPM_P2
2022/12/20 00:00:54;;;;;;;;;;;1.70;90.10;;;;;;5049717;28;19996;-88
2022/12/20 00:03:19;;;;;;;;;;;1.70;89.50;;;;;;5053303;28;20433;-88
2022/12/20 00:05:45;;;;;;;;;;;1.70;89.30;;;;;;5053333;28;20303;-88
2022/12/20 00:08:11;;;;;;;;;;;1.90;89.60;;;;;;5045480;28;20432;-87
2022/12/20 00:10:37;;;;;;;;;;;2.00;89.50;;;;;;5033334;28;20399;-87
2022/12/20 00:13:02;;;;;;;;;;;2.10;89.20;;;;;;5032769;28;20012;-87
2022/12/20 00:15:28;;;;;;;;;;;2.00;89.00;;;;;;5033287;28;20292;-87
2022/12/20 00:17:54;;;;;;;;;;;2.00;87.90;;;;;;5038093;28;20020;-87
2022/12/20 00:20:19;;;;;;;;;;;1.80;87.70;;;;;;5053205;28;19971;-87
2022/12/20 00:22:45;;;;;;;;;;;1.80;88.60;;;;;;5052873;28;20074;-87
2022/12/20 00:25:10;;;;;;;;;;;1.70;89.00;;;;;;5053091;28;19960;-87
2022/12/20 00:27:36;;;;;;;;;;;1.50;88.40;;;;;;5050650;28;20407;-87
2022/12/20 00:30:01;;;;;;;;;;;1.40;88.60;;;;;;5049244;28;20610;-87
2022/12/20 00:32:27;;;;;;;;;;;1.30;88.30;;;;;;5033092;28;20429;-88
2022/12/20 00:34:52;;;;;;;;;;;1.30;88.40;;;;;;5033087;28;19944;-87
2022/12/20 00:37:18;;;;;;;;;;;1.30;88.50;;;;;;5033109;28;19939;-88
2022/12/20 00:39:43;;;;;;;;;;;1.40;88.30;;;;;;5052195;28;19952;-88
2022/12/20 00:42:09;;;;;;;;;;;1.40;88.50;;;;;;5051960;28;19943;-88
2022/12/20 00:44:35;;;;;;;;;;;1.50;88.80;;;;;;5035866;28;20055;-87
2022/12/20 00:47:00;;;;;;;;;;;1.50;88.80;;;;;;5033211;28;20028;-87
2022/12/20 00:49:26;;;;;;;;;;;1.50;88.60;;;;;;5032926;28;19939;-87
2022/12/20 00:51:51;;;;;;;;;;;1.60;88.50;;;;;;5032927;28;19956;-87
2022/12/20 00:54:17;;;;;;;;;;;1.60;88.70;;;;;;5049892;28;19948;-87
2022/12/20 00:56:42;;;;;;;;;;;1.60;89.20;;;;;;5052807;28;20430;-87
2022/12/20 00:59:08;;;;;;;;;;;1.50;89.00;;;;;;5052818;28;20408;-87
2022/12/20 01:01:33;;;;;;;;;;;1.40;89.30;;;;;;5052717;28;19944;-87
2022/12/20 01:03:59;;;;;;;;;;;1.30;89.30;;;;;;5037787;28;19965;-87
2022/12/20 01:06:25;;;;;;;;;;;1.20;89.00;;;;;;5032740;28;20362;-87
2022/12/20 01:08:52;;;;;;;;;;;1.10;89.20;;;;;;5037132;28;19942;-87
2022/12/20 01:11:25;;;;;;;;;;;1.10;89.80;;;;;;5032744;28;19944;-88
2022/12/20 01:13:52;;;;;;;;;;;1.20;90.20;;;;;;5045649;28;20028;-88
2022/12/20 01:16:20;;;;;;;;;;;1.30;90.60;;;;;;5052608;28;20323;-88
2022/12/20 01:18:47;;;;;;;;;;;1.50;90.20;;;;;;5052615;28;19939;-88
2022/12/20 01:21:13;;;;;;;;;;;1.60;90.00;;;;;;5052431;28;19949;-88
2022/12/20 01:23:39;;;;;;;;;;;1.70;89.70;;;;;;5040654;28;20069;-88
2022/12/20 01:26:08;;;;;;;;;;;1.80;89.50;;;;;;5035947;28;20371;-87
2022/12/20 01:28:34;;;;;;;;;;;1.90;89.40;;;;;;5036400;28;19976;-88
2022/12/20 01:31:00;;;;;;;;;;;2.00;88.90;;;;;;5036316;28;20023;-87
2022/12/20 01:33:25;;;;;;;;;;;1.90;89.00;;;;;;5045710;28;20440;-87
2022/12/20 01:36:02;;;;;;;;;;;2.00;89.10;;;;;;5056165;28;20304;-87
2022/12/20 01:38:27;;;;;;;;;;;2.00;89.40;;;;;;5056130;28;19939;-87
2022/12/20 01:40:53;;;;;;;;;;;1.90;89.40;;;;;;5056036;28;19948;-87
2022/12/20 01:43:19;;;;;;;;;;;1.80;89.50;;;;;;5047266;28;19961;-87
2022/12/20 01:45:45;;;;;;;;;;;1.70;89.80;;;;;;5036040;28;20419;-87
2022/12/20 01:48:12;;;;;;;;;;;1.80;89.80;;;;;;5036036;28;19990;-87
2022/12/20 01:50:38;;;;;;;;;;;1.80;89.90;;;;;;5035914;28;19950;-87
2022/12/20 01:53:04;;;;;;;;;;;1.70;89.90;;;;;;5041678;28;20320;-87
2022/12/20 01:55:30;;;;;;;;;;;1.60;89.70;;;;;;5055754;28;19939;-88
2022/12/20 01:58:01;;;;;;;;;;;1.60;90.10;;;;;;5055775;28;20386;-88
2022/12/20 02:00:27;;;;;;;;;;;1.80;90.20;;;;;;5055715;28;19944;-87
2022/12/20 02:02:53;;;;;;;;;;;1.90;90.10;;;;;;5038527;28;20399;-87
2022/12/20 02:05:19;;;;;;;;;;;1.90;90.00;;;;;;5035715;28;19937;-87
2022/12/20 02:07:47;;;;;;;;;;;1.90;90.30;;;;;;5035586;28;19941;-87
2022/12/20 02:10:14;;;;;;;;;;;1.90;89.90;;;;;;5035536;28;19940;-87
2022/12/20 02:12:44;;;;;;;;;;;1.70;90.00;;;;;;5050277;28;19954;-87
2022/12/20 02:15:28;;;;;;;;;;;1.60;90.10;;;;;;5054871;28;19988;-87
2022/12/20 02:18:05;;;;;;;;;;;1.50;90.20;;;;;;5055352;28;19987;-87
2022/12/20 02:20:46;;;;;;;;;;;1.50;91.00;;;;;;5055353;28;20391;-87
2022/12/20 02:23:12;;;;;;;;;;;1.60;91.10;;;;;;5089833;22;20016;-87
2022/12/20 02:25:56;;;;;;;;;;;1.80;90.90;;;;;;5075271;28;20372;-87
2022/12/20 02:28:21;;;;;;;;;;;1.90;90.50;;;;;;5075196;28;19940;-87
2022/12/20 02:30:48;;;;;;;;;;;2.00;90.20;;;;;;5075174;28;20071;-87
2022/12/20 02:33:13;;;;;;;;;;;1.90;90.30;;;;;;5093806;28;19972;-87
2022/12/20 02:35:40;;;;;;;;;;;1.80;90.30;;;;;;5091913;28;20312;-87
2022/12/20 02:38:24;;;;;;;;;;;1.80;90.50;;;;;;5095252;28;19952;-87
2022/12/20 02:40:52;;;;;;;;;;;1.70;90.60;;;;;;5095125;28;19940;-87
2022/12/20 02:46:02;;;;;;;;;;;1.70;91.30;;;;;;5074890;28;19952;-87
2022/12/20 02:48:30;;;;;;;;;;;1.80;91.40;;;;;;5074814;28;20029;-87
2022/12/20 02:50:57;;;;;;;;;;;1.80;91.50;;;;;;5074797;28;19951;-87
2022/12/20 02:53:23;;;;;;;;;;;1.90;91.40;;;;;;5091021;28;19967;-87
2022/12/20 02:55:52;;;;;;;;;;;2.00;91.20;;;;;;5056802;28;19942;-87
2022/12/20 02:58:30;;;;;;;;;;;2.00;91.00;;;;;;5074644;28;19937;-87
2022/12/20 03:00:56;;;;;;;;;;;1.80;90.60;;;;;;5074571;28;19942;-87
2022/12/20 03:03:22;;;;;;;;;;;1.80;91.00;;;;;;5094117;28;19956;-87
2022/12/20 03:05:48;;;;;;;;;;;1.90;91.10;;;;;;5094704;28;19987;-87
2022/12/20 03:08:14;;;;;;;;;;;2.20;91.10;;;;;;5093204;28;19936;-87
2022/12/20 03:10:40;;;;;;;;;;;2.40;90.60;;;;;;5074317;28;20502;-87
2022/12/20 03:13:06;;;;;;;;;;;2.40;89.60;;;;;;5074332;28;20030;-87
2022/12/20 03:15:31;;;;;;;;;;;2.40;89.20;;;;;;5074268;28;20390;-87
2022/12/20 03:17:57;;;;;;;;;;;2.40;89.10;;;;;;5074241;28;20036;-87
2022/12/20 03:20:22;;;;;;;;;;;2.20;89.30;;;;;;5092805;28;20155;-87
2022/12/20 03:22:48;;;;;;;;;;;2.20;89.60;;;;;;5094041;28;19942;-87
2022/12/20 03:25:13;;;;;;;;;;;2.10;90.00;;;;;;5094281;28;19940;-88
2022/12/20 03:27:39;;;;;;;;;;;2.10;90.30;;;;;;5094330;28;19944;-88
2022/12/20 03:30:05;;;;;;;;;;;2.10;90.60;;;;;;5092972;28;19945;-88
2022/12/20 03:32:31;;;;;;;;;;;2.20;90.60;;;;;;5093634;28;19942;-87
2022/12/20 03:34:56;;;;;;;;;;;2.20;90.20;;;;;;5094115;28;20314;-87
2022/12/20 03:37:22;;;;;;;;;;;2.30;90.30;;;;;;5094145;28;20020;-88
2022/12/20 03:39:47;;;;;;;;;;;2.40;89.90;;;;;;5080413;28;20422;-87
2022/12/20 03:42:13;;;;;;;;;;;2.40;89.10;;;;;;5073819;28;19941;-88
2022/12/20 03:44:38;;;;;;;;;;;2.40;89.20;;;;;;5073600;28;20407;-87
2022/12/20 03:47:04;;;;;;;;;;;2.40;89.30;;;;;;5072832;28;19941;-87
2022/12/20 03:49:29;;;;;;;;;;;2.40;89.30;;;;;;5084310;28;19950;-87
2022/12/20 03:51:55;;;;;;;;;;;2.40;89.10;;;;;;5094014;28;19951;-87
2022/12/20 03:54:20;;;;;;;;;;;2.30;88.70;;;;;;5093711;28;19967;-88
2022/12/20 03:56:46;;;;;;;;;;;2.20;89.60;;;;;;5088974;28;20400;-87
2022/12/20 03:59:11;;;;;;;;;;;2.20;89.40;;;;;;5073488;28;19946;-88
2022/12/20 04:01:37;;;;;;;;;;;2.10;90.10;;;;;;5073463;28;19937;-87
2022/12/20 04:04:03;;;;;;;;;;;2.20;90.30;;;;;;5073367;28;20067;-88
2022/12/20 04:06:29;;;;;;;;;;;2.00;90.40;;;;;;5075064;28;20001;-87
2022/12/20 04:08:54;;;;;;;;;;;1.90;90.80;;;;;;5093625;28;20403;-88
2022/12/20 04:11:20;;;;;;;;;;;1.90;91.50;;;;;;5093577;28;19937;-88
2022/12/20 04:13:47;;;;;;;;;;;2.00;91.40;;;;;;5093475;28;20396;-87
2022/12/20 04:16:13;;;;;;;;;;;2.20;91.10;;;;;;5093485;28;20319;-87
2022/12/20 04:18:39;;;;;;;;;;;2.30;90.90;;;;;;5073553;28;19948;-87
2022/12/20 04:21:06;;;;;;;;;;;2.30;90.90;;;;;;5073038;28;19940;-87
2022/12/20 04:23:33;;;;;;;;;;;2.30;90.70;;;;;;5073136;28;19994;-87
2022/12/20 04:25:59;;;;;;;;;;;2.30;90.40;;;;;;5073189;28;19994;-88
2022/12/20 04:28:24;;;;;;;;;;;2.40;90.20;;;;;;5090182;28;20393;-88
2022/12/20 04:30:50;;;;;;;;;;;2.40;89.90;;;;;;5093308;28;20404;-87
2022/12/20 04:33:15;;;;;;;;;;;2.30;90.00;;;;;;5093269;28;19946;-88
2022/12/20 04:35:41;;;;;;;;;;;2.30;90.10;;;;;;5084685;28;19946;-88
2022/12/20 04:38:06;;;;;;;;;;;2.30;90.00;;;;;;5073004;28;19950;-87
2022/12/20 04:40:32;;;;;;;;;;;2.30;90.10;;;;;;5072909;28;19941;-88
2022/12/20 04:42:57;;;;;;;;;;;2.30;90.30;;;;;;5072918;28;19945;-88
2022/12/20 04:45:23;;;;;;;;;;;2.30;90.70;;;;;;5078472;28;19955;-88
2022/12/20 04:47:48;;;;;;;;;;;2.40;90.90;;;;;;5093186;28;19987;-88
2022/12/20 04:50:14;;;;;;;;;;;2.40;91.00;;;;;;5093080;28;20286;-88
2022/12/20 04:55:24;;;;;;;;;;;2.50;90.50;;;;;;5072809;28;19948;-88
2022/12/20 04:57:49;;;;;;;;;;;2.70;90.50;;;;;;5073210;28;19936;-88
2022/12/20 05:00:15;;;;;;;;;;;2.70;90.60;;;;;;5076885;28;19942;-88
2022/12/20 05:02:41;;;;;;;;;;;2.70;90.50;;;;;;5084024;28;19952;-88
2022/12/20 05:05:07;;;;;;;;;;;2.70;90.40;;;;;;5096680;28;20043;-88
2022/12/20 05:07:32;;;;;;;;;;;2.80;90.30;;;;;;5097012;28;19973;-88
2022/12/20 05:09:58;;;;;;;;;;;3.00;89.70;;;;;;5096907;28;19941;-87
2022/12/20 05:12:23;;;;;;;;;;;2.90;88.80;;;;;;5092248;28;19963;-87
2022/12/20 05:14:49;;;;;;;;;;;2.80;88.60;;;;;;5076613;28;19959;-87
2022/12/20 05:17:14;;;;;;;;;;;2.70;88.80;;;;;;5076524;28;19937;-87
2022/12/20 05:19:40;;;;;;;;;;;2.70;89.20;;;;;;5076457;28;19945;-87
2022/12/20 05:27:33;;;;;;;;;;;2.70;89.70;;;;;;5096623;28;19950;-87
2022/12/20 05:29:59;;;;;;;;;;;2.60;89.80;;;;;;5096598;28;19944;-87
2022/12/20 05:32:24;;;;;;;;;;;2.60;89.90;;;;;;5092169;28;19937;-87
2022/12/20 05:34:50;;;;;;;;;;;2.80;89.90;;;;;;5076173;28;19992;-87
2022/12/20 05:37:15;;;;;;;;;;;2.80;88.90;;;;;;5076405;28;19946;-87
2022/12/20 05:39:41;;;;;;;;;;;2.80;88.60;;;;;;5076130;28;20290;-87
2022/12/20 05:42:07;;;;;;;;;;;2.70;88.40;;;;;;5077190;28;20303;-87
2022/12/20 05:44:32;;;;;;;;;;;2.80;88.70;;;;;;5096233;28;19969;-88
2022/12/20 05:46:58;;;;;;;;;;;2.80;88.90;;;;;;5096230;28;19952;-88
2022/12/20 05:49:24;;;;;;;;;;;2.70;88.90;;;;;;5092986;28;19955;-88
2022/12/20 05:51:49;;;;;;;;;;;2.70;89.10;;;;;;5075840;28;19966;-88
2022/12/20 05:54:15;;;;;;;;;;;2.70;88.90;;;;;;5076020;28;20032;-88
2022/12/20 05:56:40;;;;;;;;;;;2.70;89.00;;;;;;5075837;28;19937;-88
2022/12/20 05:59:06;;;;;;;;;;;2.70;89.10;;;;;;5075687;28;19940;-88
2022/12/20 06:01:32;;;;;;;;;;;2.70;89.10;;;;;;5077711;28;19950;-88
2022/12/20 06:03:57;;;;;;;;;;;2.70;89.40;;;;;;5074407;28;20476;-88
2022/12/20 06:06:23;;;;;;;;;;;2.80;89.50;;;;;;5075665;28;19946;-87
2022/12/20 06:08:49;;;;;;;;;;;2.70;89.50;;;;;;5075560;28;20036;-87
2022/12/20 06:11:14;;;;;;;;;;;2.70;89.80;;;;;;5092338;28;19948;-87
2022/12/20 06:13:40;;;;;;;;;;;2.70;90.20;;;;;;5077591;28;19944;-87
2022/12/20 06:16:06;;;;;;;;;;;2.70;90.10;;;;;;5095479;28;20150;-87
2022/12/20 06:18:31;;;;;;;;;;;2.70;90.30;;;;;;5087534;28;19942;-87
2022/12/20 06:20:57;;;;;;;;;;;2.70;90.20;;;;;;5083247;28;19964;-87
2022/12/20 06:23:22;;;;;;;;;;;2.70;90.20;;;;;;5074728;28;19965;-87
2022/12/20 06:25:48;;;;;;;;;;;2.60;90.30;;;;;;5075258;28;19962;-88
2022/12/20 06:28:15;;;;;;;;;;;2.60;90.50;;;;;;5074603;28;20016;-87
2022/12/20 06:30:40;;;;;;;;;;;2.60;90.70;;;;;;5072641;28;20005;-87
2022/12/20 06:33:06;;;;;;;;;;;2.70;90.80;;;;;;5072943;28;20418;-87
2022/12/20 06:35:31;;;;;;;;;;;2.60;90.80;;;;;;5074132;28;19959;-87
2022/12/20 06:37:57;;;;;;;;;;;2.40;91.20;;;;;;5074510;28;19941;-88
2022/12/20 06:40:22;;;;;;;;;;;2.60;91.10;;;;;;5090457;28;20396;-87
2022/12/20 06:42:49;;;;;;;;;;;2.60;91.00;;;;;;5075395;28;19950;-87
2022/12/20 06:45:14;;;;;;;;;;;2.60;91.00;;;;;;5092429;28;19958;-88
2022/12/20 06:47:40;;;;;;;;;;;2.70;91.00;;;;;;5071309;28;19947;-87
2022/12/20 06:50:06;;;;;;;;;;;2.90;91.00;;;;;;5073921;28;20613;-87
2022/12/20 06:52:32;;;;;;;;;;;3.10;90.90;;;;;;5074548;28;19969;-87
2022/12/20 06:54:57;;;;;;;;;;;3.20;90.30;;;;;;5074949;28;19956;-87
2022/12/20 06:57:23;;;;;;;;;;;3.30;88.90;;;;;;5073849;28;20392;-87
2022/12/20 06:59:48;;;;;;;;;;;3.30;88.30;;;;;;5074207;28;19947;-87
2022/12/20 07:02:14;;;;;;;;;;;3.30;88.40;;;;;;5068774;28;20405;-88
2022/12/20 07:04:40;;;;;;;;;;;3.20;88.30;;;;;;5076836;28;19968;-88
2022/12/20 07:07:05;;;;;;;;;;;3.30;88.10;;;;;;5075299;28;19944;-87
2022/12/20 07:09:31;;;;;;;;;;;3.20;88.00;;;;;;5073918;28;19944;-87
2022/12/20 07:11:57;;;;;;;;;;;3.20;87.30;;;;;;5073126;28;19945;-88
2022/12/20 07:14:22;;;;;;;;;;;3.10;87.40;;;;;;5060859;28;19945;-88
2022/12/20 07:16:49;;;;;;;;;;;3.00;87.90;;;;;;5072706;28;20061;-88
2022/12/20 07:19:15;;;;;;;;;;;3.00;88.60;;;;;;5067452;28;20002;-88
2022/12/20 07:21:41;;;;;;;;;;;2.90;89.10;;;;;;5072638;28;19976;-88
2022/12/20 07:24:07;;;;;;;;;;;3.00;89.90;;;;;;5071449;28;19957;-87
2022/12/20 07:26:32;;;;;;;;;;;3.00;89.90;;;;;;5068871;28;19958;-87
2022/12/20 07:28:58;;;;;;;;;;;3.00;90.00;;;;;;5068109;28;19949;-87
2022/12/20 07:31:23;;;;;;;;;;;3.10;90.20;;;;;;5069810;28;19948;-87
2022/12/20 07:33:49;;;;;;;;;;;3.00;90.30;;;;;;5069984;28;20000;-87
2022/12/20 07:36:14;;;;;;;;;;;3.00;90.50;;;;;;5071001;28;19994;-87
2022/12/20 07:38:40;;;;;;;;;;;3.10;90.30;;;;;;5069363;28;20033;-87
2022/12/20 07:41:07;;;;;;;;;;;3.10;90.10;;;;;;5071262;28;19948;-88
2022/12/20 07:43:32;;;;;;;;;;;3.10;90.20;;;;;;5074688;28;20052;-88
2022/12/20 07:45:58;;;;;;;;;;;3.10;90.40;;;;;;5071600;28;20102;-88
2022/12/20 07:48:23;;;;;;;;;;;3.20;90.50;;;;;;5071847;28;19989;-88
2022/12/20 07:50:53;;;;;;;;;;;3.10;90.30;;;;;;5071370;28;20963;-88
2022/12/20 07:53:20;;;;;;;;;;;3.10;90.20;;;;;;5067346;28;19970;-88
2022/12/20 07:55:46;;;;;;;;;;;3.20;90.40;;;;;;5077084;28;19959;-88
2022/12/20 07:58:13;;;;;;;;;;;3.40;90.10;;;;;;5071242;28;20007;-88
2022/12/20 08:00:39;;;;;;;;;;;3.50;89.80;;;;;;5068292;28;19953;-87
2022/12/20 08:03:07;;;;;;;;;;;3.60;88.50;;;;;;5068609;28;20580;-87
2022/12/20 08:05:33;;;;;;;;;;;3.70;87.90;;;;;;5069220;28;19957;-87
2022/12/20 08:08:00;;;;;;;;;;;3.70;87.30;;;;;;5075303;28;19945;-87
2022/12/20 08:10:27;;;;;;;;;;;3.60;87.50;;;;;;5066507;28;20023;-87
2022/12/20 08:12:53;;;;;;;;;;;3.60;87.80;;;;;;5065839;28;19963;-87
2022/12/20 08:15:21;;;;;;;;;;;3.70;87.10;;;;;;5067441;28;20341;-87
2022/12/20 08:17:46;;;;;;;;;;;3.60;87.10;;;;;;5069112;28;19942;-87
2022/12/20 08:20:12;;;;;;;;;;;3.70;87.50;;;;;;5069058;28;19951;-87
2022/12/20 08:22:38;;;;;;;;;;;3.70;86.90;;;;;;5066805;28;20390;-87
2022/12/20 08:25:03;;;;;;;;;;;3.60;86.90;;;;;;5072784;28;19964;-87
2022/12/20 08:27:29;;;;;;;;;;;3.60;86.90;;;;;;5072193;28;20451;-87
2022/12/20 08:29:54;;;;;;;;;;;3.60;86.60;;;;;;5075303;28;19992;-87
2022/12/20 08:32:20;;;;;;;;;;;3.70;87.10;;;;;;5073734;28;20020;-87
2022/12/20 08:34:47;;;;;;;;;;;3.60;86.50;;;;;;5076382;28;19986;-87
2022/12/20 08:37:14;;;;;;;;;;;3.50;86.70;;;;;;5066847;28;20675;-86
2022/12/20 08:39:40;;;;;;;;;;;3.50;86.80;;;;;;5066491;28;20058;-86
2022/12/20 08:42:06;;;;;;;;;;;3.60;86.00;;;;;;5067310;28;20373;-87
2022/12/20 08:44:31;;;;;;;;;;;3.70;85.30;;;;;;5069694;28;19956;-86
2022/12/20 08:46:57;;;;;;;;;;;3.80;84.80;;;;;;5068679;28;20050;-87
2022/12/20 08:49:22;;;;;;;;;;;3.90;84.30;;;;;;5056189;28;19951;-87
2022/12/20 08:51:48;;;;;;;;;;;4.10;83.90;;;;;;5067231;28;19943;-87
2022/12/20 08:54:13;;;;;;;;;;;4.10;83.70;;;;;;5070102;28;19945;-87
2022/12/20 08:56:39;;;;;;;;;;;4.20;83.80;;;;;;5068235;28;19943;-87
2022/12/20 08:59:04;;;;;;;;;;;4.20;84.50;;;;;;5069725;28;19950;-87
2022/12/20 09:01:32;;;;;;;;;;;4.20;85.00;;;;;;5068882;28;20352;-87
2022/12/20 09:03:58;;;;;;;;;;;4.30;84.80;;;;;;5072284;28;19999;-87
2022/12/20 09:06:23;;;;;;;;;;;4.30;84.40;;;;;;5068808;28;19992;-87
2022/12/20 09:08:49;;;;;;;;;;;4.40;84.40;;;;;;5051525;28;19948;-87
2022/12/20 09:11:17;;;;;;;;;;;4.40;84.40;;;;;;5065866;28;19955;-87
2022/12/20 09:13:43;;;;;;;;;;;4.40;84.50;;;;;;5066094;28;19999;-87
2022/12/20 09:16:09;;;;;;;;;;;4.50;83.90;;;;;;5063404;28;20322;-86
2022/12/20 09:18:35;;;;;;;;;;;4.50;83.90;;;;;;5071417;28;20546;-86
2022/12/20 09:21:02;;;;;;;;;;;4.70;82.10;;;;;;5072225;28;19953;-87
2022/12/20 09:23:29;;;;;;;;;;;4.70;82.30;;;;;;5077903;28;19962;-86
2022/12/20 09:25:54;;;;;;;;;;;4.70;82.80;;;;;;5070566;28;20061;-87
2022/12/20 09:28:20;;;;;;;;;;;4.60;83.00;;;;;;5067323;28;20345;-87
2022/12/20 09:30:46;;;;;;;;;;;4.50;83.80;;;;;;5077627;28;20031;-87
2022/12/20 09:33:11;;;;;;;;;;;4.70;83.70;;;;;;5068576;28;20050;-87
2022/12/20 09:35:43;;;;;;;;;;;4.80;83.30;;;;;;5065207;28;19940;-87
2022/12/20 09:38:08;;;;;;;;;;;5.00;82.90;;;;;;5064560;28;19943;-87
2022/12/20 09:40:36;;;;;;;;;;;5.20;82.10;;;;;;5067507;28;19959;-87
2022/12/20 09:43:02;;;;;;;;;;;5.20;80.90;;;;;;5050878;28;19952;-87
2022/12/20 09:45:30;;;;;;;;;;;5.40;80.70;;;;;;5068851;28;19965;-87
2022/12/20 09:47:55;;;;;;;;;;;5.40;80.00;;;;;;5069299;28;20451;-86
2022/12/20 09:50:36;;;;;;;;;;;5.60;79.20;;;;;;5075820;28;19944;-87
2022/12/20 09:53:13;;;;;;;;;;;5.50;79.00;;;;;;5069302;28;19965;-87
2022/12/20 09:55:48;;;;;;;;;;;5.40;78.90;;;;;;5071966;28;19952;-87
2022/12/20 09:58:25;;;;;;;;;;;5.30;78.10;;;;;;5068473;28;19939;-87
2022/12/20 10:00:51;;;;;;;;;;;5.20;77.20;;;;;;5079289;28;20034;-87
2022/12/20 10:03:21;;;;;;;;;;;5.10;77.70;;;;;;5090228;28;20081;-87
2022/12/20 10:05:53;;;;;;;;;;;5.00;78.00;;;;;;5065967;28;20407;-87
2022/12/20 10:08:25;;;;;;;;;;;5.10;78.10;;;;;;5071881;28;20126;-87
2022/12/20 10:11:02;;;;;;;;;;;5.00;76.70;;;;;;5074084;28;20050;-87
2022/12/20 10:13:36;;;;;;;;;;;5.10;77.00;;;;;;5073497;28;19948;-87
2022/12/20 10:16:14;;;;;;;;;;;5.00;77.10;;;;;;5070368;28;19950;-87
2022/12/20 10:18:59;;;;;;;;;;;5.00;76.90;;;;;;5073835;28;19996;-87
2022/12/20 10:21:34;;;;;;;;;;;5.20;76.50;;;;;;5059231;22;20001;-87
2022/12/20 10:24:01;;;;;;;;;;;5.50;76.00;;;;;;5076333;28;19993;-87
2022/12/20 10:26:27;;;;;;;;;;;5.80;74.70;;;;;;5074167;28;20098;-88
2022/12/20 10:28:52;;;;;;;;;;;5.70;75.30;;;;;;5076446;28;19943;-87
2022/12/20 10:31:18;;;;;;;;;;;5.50;75.10;;;;;;5080952;28;19948;-86
2022/12/20 10:33:44;;;;;;;;;;;5.40;76.00;;;;;;5077759;28;20288;-87
2022/12/20 10:36:20;;;;;;;;;;;5.40;76.20;;;;;;5076251;28;20419;-87
2022/12/20 10:38:48;;;;;;;;;;;5.50;76.00;;;;;;5085787;28;19953;-88
2022/12/20 10:41:15;;;;;;;;;;;5.40;76.30;;;;;;5082579;28;20038;-88
2022/12/20 10:43:48;;;;;;;;;;;5.40;76.50;;;;;;5078338;28;19966;-88
2022/12/20 10:46:17;;;;;;;;;;;5.40;77.90;;;;;;5074829;28;20048;-88
2022/12/20 10:48:44;;;;;;;;;;;5.50;78.30;;;;;;5048984;28;19945;-88
2022/12/20 10:51:11;;;;;;;;;;;5.70;76.50;;;;;;5080769;28;19982;-88
2022/12/20 10:53:48;;;;;;;;;;;5.70;74.80;;;;;;5075113;28;19965;-88
2022/12/20 10:56:17;;;;;;;;;;;5.60;75.10;;;;;;5073405;28;19945;-88
2022/12/20 10:58:50;;;;;;;;;;;5.60;76.10;;;;;;5079079;28;19976;-87
2022/12/20 11:01:18;;;;;;;;;;;5.70;75.90;;;;;;5072686;28;20027;-87
2022/12/20 11:04:00;;;;;;;;;;;5.70;72.60;;;;;;5070015;28;19958;-87
2022/12/20 11:06:28;;;;;;;;;;;5.70;71.40;;;;;;5071609;28;19991;-87
2022/12/20 11:09:11;;;;;;;;;;;5.80;69.70;;;;;;5051334;28;19950;-87
2022/12/20 11:11:36;;;;;;;;;;;5.80;72.20;;;;;;5053865;28;19946;-89
2022/12/20 11:14:12;;;;;;;;;;;5.80;72.00;;;;;;5073447;28;19998;-87
2022/12/20 11:16:39;;;;;;;;;;;5.80;72.10;;;;;;5071470;28;19942;-87
2022/12/20 11:19:23;;;;;;;;;;;5.80;70.50;;;;;;5072098;28;19971;-87
2022/12/20 11:21:58;;;;;;;;;;;6.00;70.20;;;;;;5073869;28;19977;-88
2022/12/20 11:24:32;;;;;;;;;;;6.40;68.90;;;;;;5073988;28;19967;-88
2022/12/20 11:27:17;;;;;;;;;;;6.70;67.00;;;;;;5073944;28;19942;-87
2022/12/20 11:29:55;;;;;;;;;;;6.70;67.90;;;;;;5073838;28;19968;-87
2022/12/20 11:32:34;;;;;;;;;;;6.80;67.00;;;;;;5073994;28;20022;-87
2022/12/20 11:35:21;;;;;;;;;;;6.80;67.60;;;;;;5073952;28;20018;-87
2022/12/20 11:37:52;;;;;;;;;;;6.70;68.60;;;;;;5073626;28;20381;-87
2022/12/20 11:40:18;;;;;;;;;;;6.70;69.10;;;;;;5073845;28;19943;-88
2022/12/20 11:42:51;;;;;;;;;;;6.70;68.40;;;;;;5055795;28;20066;-88
2022/12/20 11:45:35;;;;;;;;;;;6.70;68.30;;;;;;5073632;28;20437;-88
2022/12/20 11:48:20;;;;;;;;;;;6.70;68.60;;;;;;5073416;28;19947;-88
2022/12/20 11:50:57;;;;;;;;;;;6.90;69.10;;;;;;5073646;28;20065;-88
2022/12/20 11:53:29;;;;;;;;;;;7.00;68.80;;;;;;5073242;28;19960;-88
2022/12/20 11:55:58;;;;;;;;;;;7.30;67.80;;;;;;5073574;28;19942;-87
2022/12/20 11:58:42;;;;;;;;;;;7.50;66.00;;;;;;5073138;28;19939;-87
2022/12/20 12:01:11;;;;;;;;;;;7.70;65.40;;;;;;5073145;28;20412;-87
2022/12/20 12:03:38;;;;;;;;;;;7.60;65.30;;;;;;5073389;28;20326;-87
2022/12/20 12:06:07;;;;;;;;;;;7.40;66.10;;;;;;5073691;28;19945;-87
2022/12/20 12:08:38;;;;;;;;;;;7.30;67.90;;;;;;5072512;28;19965;-88
2022/12/20 12:11:13;;;;;;;;;;;7.20;67.90;;;;;;5055384;28;20377;-88
2022/12/20 12:13:39;;;;;;;;;;;7.20;68.50;;;;;;5073285;28;19933;-87
2022/12/20 12:16:26;;;;;;;;;;;7.10;68.70;;;;;;5073311;28;20404;-88
2022/12/20 12:18:51;;;;;;;;;;;6.90;69.60;;;;;;5054805;28;19976;-87
2022/12/20 12:21:20;;;;;;;;;;;6.90;70.40;;;;;;5073061;28;19963;-87
2022/12/20 12:23:48;;;;;;;;;;;6.90;69.10;;;;;;5073100;28;19966;-87
2022/12/20 12:26:22;;;;;;;;;;;6.90;69.40;;;;;;5072419;28;20042;-87
2022/12/20 12:28:51;;;;;;;;;;;6.90;69.50;;;;;;5054516;28;20036;-88
2022/12/20 12:31:20;;;;;;;;;;;6.90;70.10;;;;;;5064204;28;20429;-87
2022/12/20 12:33:49;;;;;;;;;;;7.20;68.90;;;;;;5065893;28;19997;-88
2022/12/20 12:36:27;;;;;;;;;;;7.20;67.40;;;;;;5067609;28;19947;-87
2022/12/20 12:39:05;;;;;;;;;;;7.20;68.50;;;;;;5071771;28;19942;-87
2022/12/20 12:41:43;;;;;;;;;;;7.10;67.20;;;;;;5053810;28;19944;-88
2022/12/20 12:44:17;;;;;;;;;;;7.00;67.60;;;;;;5067929;28;20128;-88
2022/12/20 12:46:43;;;;;;;;;;;7.10;67.40;;;;;;5068257;28;19948;-88
2022/12/20 12:49:11;;;;;;;;;;;7.10;66.80;;;;;;5064516;28;19948;-88
2022/12/20 12:51:38;;;;;;;;;;;7.20;66.90;;;;;;5068400;28;20011;-88
2022/12/20 12:54:13;;;;;;;;;;;7.30;66.70;;;;;;5065792;28;19963;-87
2022/12/20 12:56:44;;;;;;;;;;;7.20;68.00;;;;;;5072378;28;20314;-87
2022/12/20 12:59:19;;;;;;;;;;;7.20;68.50;;;;;;5068980;28;19954;-87
2022/12/20 13:01:46;;;;;;;;;;;7.20;69.10;;;;;;5067922;28;19945;-87
2022/12/20 13:04:21;;;;;;;;;;;7.20;68.90;;;;;;5070985;28;20063;-87
2022/12/20 13:06:46;;;;;;;;;;;7.20;69.70;;;;;;5070111;28;19942;-87
2022/12/20 13:09:24;;;;;;;;;;;7.20;70.00;;;;;;5070441;28;19950;-87
2022/12/20 13:11:51;;;;;;;;;;;7.20;69.60;;;;;;5069707;28;20087;-87
2022/12/20 13:14:16;;;;;;;;;;;7.20;68.30;;;;;;5068895;28;19950;-87
2022/12/20 13:16:43;;;;;;;;;;;7.20;68.50;;;;;;5069582;28;19968;-87
2022/12/20 13:19:34;;;;;;;;;;;7.10;68.50;;;;;;5066606;28;20410;-87
2022/12/20 13:22:03;;;;;;;;;;;7.10;67.00;;;;;;5069892;28;19977;-87
2022/12/20 13:24:28;;;;;;;;;;;7.20;66.50;;;;;;5074204;28;19972;-87
2022/12/20 13:26:54;;;;;;;;;;;7.30;66.20;;;;;;5073734;28;19938;-87
2022/12/20 13:29:23;;;;;;;;;;;7.30;66.50;;;;;;5057126;28;20426;-87
2022/12/20 13:31:48;;;;;;;;;;;7.40;66.90;;;;;;5070479;28;19948;-87
2022/12/20 13:34:32;;;;;;;;;;;7.40;66.90;;;;;;5073562;28;19944;-87
2022/12/20 13:36:58;;;;;;;;;;;7.30;66.90;;;;;;5074976;28;19941;-87
2022/12/20 13:39:25;;;;;;;;;;;7.30;67.80;;;;;;5074821;28;19954;-87
2022/12/20 13:42:05;;;;;;;;;;;7.30;67.80;;;;;;5072392;28;20436;-87
2022/12/20 13:44:34;;;;;;;;;;;7.40;68.90;;;;;;5070405;28;19973;-87
2022/12/20 13:47:06;;;;;;;;;;;7.30;69.90;;;;;;5053709;28;19946;-87
2022/12/20 13:49:39;;;;;;;;;;;7.20;70.20;;;;;;5075751;28;19950;-87
2022/12/20 13:52:10;;;;;;;;;;;7.10;70.10;;;;;;5073832;28;19960;-87
2022/12/20 13:54:40;;;;;;;;;;;7.10;70.70;;;;;;5074459;28;19958;-87
2022/12/20 13:57:06;;;;;;;;;;;7.10;70.90;;;;;;5067635;28;19947;-87
2022/12/20 13:59:32;;;;;;;;;;;7.00;69.90;;;;;;5070581;28;19949;-86
2022/12/20 14:02:00;;;;;;;;;;;7.00;70.60;;;;;;5065930;28;20364;-86
2022/12/20 14:04:26;;;;;;;;;;;6.90;70.60;;;;;;5068501;28;19968;-86
2022/12/20 14:06:57;;;;;;;;;;;7.00;69.90;;;;;;5070553;28;19976;-86
2022/12/20 14:09:26;;;;;;;;;;;6.90;69.90;;;;;;5067004;28;20398;-87
2022/12/20 14:11:51;;;;;;;;;;;6.90;70.70;;;;;;5072477;28;19941;-87
2022/12/20 14:14:17;;;;;;;;;;;6.90;69.70;;;;;;5072505;28;19941;-86
2022/12/20 14:16:42;;;;;;;;;;;6.80;69.20;;;;;;5068296;28;19950;-86
2022/12/20 14:19:12;;;;;;;;;;;6.80;69.30;;;;;;5072932;28;20339;-87
2022/12/20 14:21:40;;;;;;;;;;;6.70;70.00;;;;;;5072146;28;20486;-87
2022/12/20 14:24:14;;;;;;;;;;;6.70;70.20;;;;;;5069501;28;19961;-87
2022/12/20 14:26:44;;;;;;;;;;;6.70;71.10;;;;;;5070875;28;20452;-87
2022/12/20 14:29:11;;;;;;;;;;;6.60;71.30;;;;;;5068397;28;19995;-87
2022/12/20 14:31:38;;;;;;;;;;;6.50;71.50;;;;;;5071282;28;19963;-87
2022/12/20 14:34:04;;;;;;;;;;;6.50;71.70;;;;;;5049917;28;20001;-86
2022/12/20 14:36:30;;;;;;;;;;;6.40;72.20;;;;;;5073403;28;20476;-87
2022/12/20 14:38:56;;;;;;;;;;;6.30;72.60;;;;;;5072411;28;20038;-87
2022/12/20 14:41:35;;;;;;;;;;;6.30;73.70;;;;;;5065340;28;20039;-87
2022/12/20 14:44:06;;;;;;;;;;;6.40;73.70;;;;;;5072886;28;20005;-87
2022/12/20 14:46:34;;;;;;;;;;;6.50;73.20;;;;;;5069273;28;19945;-87